sensor_id;sensor_type;location;lat;lon;timestamp;temperature;humidity
17954;DHT22;9102;53.548;9.926;2022-09-03T00:01:06;16.40;99.90
17954;DHT22;9102;53.548;9.926;2022-09-03T00:03:39;16.30;99.90
17954;DHT22;9102;53.548;9.926;2022-09-03T00:06:13;16.30;99.90
17954;DHT22;9102;53.548;9.926;2022-09-03T00:08:45;16.30;99.90
17954;DHT22;9102;53.548;9.926;2022-09-03T00:11:18;16.20;99.90
17954;DHT22;9102;53.548;9.926;2022-09-03T00:13:49;16.30;99.90
17954;DHT22;9102;53.548;9.926;2022-09-03T00:16:19;16.20;99.90
17954;DHT22;9102;53.548;9.926;2022-09-03T00:18:51;16.20;99.90
17954;DHT22;9102;53.548;9.926;2022-09-03T00:21:35;16.20;99.90
17954;DHT22;9102;53.548;9.926;2022-09-03T00:24:06;16.20;99.90
17954;DHT22;9102;53.548;9.926;2022-09-03T00:26:36;16.20;99.90
17954;DHT22;9102;53.548;9.926;2022-09-03T00:29:08;16.20;99.90
17954;DHT22;9102;53.548;9.926;2022-09-03T00:31:39;16.20;99.90
17954;DHT22;9102;53.548;9.926;2022-09-03T00:34:10;16.20;99.90
17954;DHT22;9102;53.548;9.926;2022-09-03T00:36:41;16.20;99.90
17954;DHT22;9102;53.548;9.926;2022-09-03T00:39:10;16.10;99.90
17954;DHT22;9102;53.548;9.926;2022-09-03T00:41:43;16.10;99.90
17954;DHT22;9102;53.548;9.926;2022-09-03T00:47:11;16.10;99.90
17954;DHT22;9102;53.548;9.926;2022-09-03T00:49:49;16.10;99.90
17954;DHT22;9102;53.548;9.926;2022-09-03T00:52:29;16.10;99.90
17954;DHT22;9102;53.548;9.926;2022-09-03T00:55:06;16.10;99.90
17954;DHT22;9102;53.548;9.926;2022-09-03T00:57:45;16.10;99.90
17954;DHT22;9102;53.548;9.926;2022-09-03T01:00:16;16.00;99.90
17954;DHT22;9102;53.548;9.926;2022-09-03T01:02:54;16.10;99.90
17954;DHT22;9102;53.548;9.926;2022-09-03T01:05:41;16.00;99.90
17954;DHT22;9102;53.548;9.926;2022-09-03T01:08:17;16.00;99.90
17954;DHT22;9102;53.548;9.926;2022-09-03T01:10:55;16.00;99.90
17954;DHT22;9102;53.548;9.926;2022-09-03T01:13:29;16.00;99.90
17954;DHT22;9102;53.548;9.926;2022-09-03T01:16:06;16.00;99.90
17954;DHT22;9102;53.548;9.926;2022-09-03T01:18:42;16.00;99.90
17954;DHT22;9102;53.548;9.926;2022-09-03T01:21:27;16.00;99.90
17954;DHT22;9102;53.548;9.926;2022-09-03T01:24:19;16.00;99.90
17954;DHT22;9102;53.548;9.926;2022-09-03T01:27:10;15.90;99.90
17954;DHT22;9102;53.548;9.926;2022-09-03T01:29:48;15.90;99.90
17954;DHT22;9102;53.548;9.926;2022-09-03T01:32:26;15.90;99.90
17954;DHT22;9102;53.548;9.926;2022-09-03T01:35:02;15.90;99.90
17954;DHT22;9102;53.548;9.926;2022-09-03T01:37:37;15.80;99.90
17954;DHT22;9102;53.548;9.926;2022-09-03T01:40:17;15.90;99.90
17954;DHT22;9102;53.548;9.926;2022-09-03T01:42:56;15.80;99.90
17954;DHT22;9102;53.548;9.926;2022-09-03T01:45:38;15.80;99.90
17954;DHT22;9102;53.548;9.926;2022-09-03T01:48:18;15.90;99.90
17954;DHT22;9102;53.548;9.926;2022-09-03T01:50:50;15.80;99.90
17954;DHT22;9102;53.548;9.926;2022-09-03T01:53:37;15.70;99.90
17954;DHT22;9102;53.548;9.926;2022-09-03T01:56:18;15.70;99.90
17954;DHT22;9102;53.548;9.926;2022-09-03T01:58:53;15.70;99.90
17954;DHT22;9102;53.548;9.926;2022-09-03T02:01:32;15.70;99.90
17954;DHT22;9102;53.548;9.926;2022-09-03T02:04:01;15.70;99.90
17954;DHT22;9102;53.548;9.926;2022-09-03T02:06:29;15.70;99.90
17954;DHT22;9102;53.548;9.926;2022-09-03T02:08:57;15.70;99.90
17954;DHT22;9102;53.548;9.926;2022-09-03T02:11:24;15.70;99.90
17954;DHT22;9102;53.548;9.926;2022-09-03T02:13:53;15.60;99.90
17954;DHT22;9102;53.548;9.926;2022-09-03T02:16:23;15.60;99.90
17954;DHT22;9102;53.548;9.926;2022-09-03T02:18:55;15.60;99.90
17954;DHT22;9102;53.548;9.926;2022-09-03T02:21:24;15.60;99.90
17954;DHT22;9102;53.548;9.926;2022-09-03T02:23:53;15.60;99.90
17954;DHT22;9102;53.548;9.926;2022-09-03T02:26:21;15.60;99.90
17954;DHT22;9102;53.548;9.926;2022-09-03T02:28:50;15.60;99.90
17954;DHT22;9102;53.548;9.926;2022-09-03T02:31:17;15.50;99.90
17954;DHT22;9102;53.548;9.926;2022-09-03T02:33:46;15.50;99.90
17954;DHT22;9102;53.548;9.926;2022-09-03T02:36:18;15.50;99.90
17954;DHT22;9102;53.548;9.926;2022-09-03T02:38:46;15.50;99.90
17954;DHT22;9102;53.548;9.926;2022-09-03T02:41:13;15.60;99.90
17954;DHT22;9102;53.548;9.926;2022-09-03T02:43:42;15.40;99.90
17954;DHT22;9102;53.548;9.926;2022-09-03T02:46:16;15.50;99.90
17954;DHT22;9102;53.548;9.926;2022-09-03T02:48:43;15.40;99.90
17954;DHT22;9102;53.548;9.926;2022-09-03T02:51:10;15.40;99.90
17954;DHT22;9102;53.548;9.926;2022-09-03T02:53:38;15.40;99.90
17954;DHT22;9102;53.548;9.926;2022-09-03T02:56:05;15.40;99.90
17954;DHT22;9102;53.548;9.926;2022-09-03T02:58:32;15.40;99.90
17954;DHT22;9102;53.548;9.926;2022-09-03T03:00:59;15.40;99.90
17954;DHT22;9102;53.548;9.926;2022-09-03T03:03:27;15.40;99.90
17954;DHT22;9102;53.548;9.926;2022-09-03T03:05:55;15.40;99.90
17954;DHT22;9102;53.548;9.926;2022-09-03T03:08:24;15.40;99.90
17954;DHT22;9102;53.548;9.926;2022-09-03T03:10:56;15.40;99.90
17954;DHT22;9102;53.548;9.926;2022-09-03T03:13:23;15.40;99.90
17954;DHT22;9102;53.548;9.926;2022-09-03T03:15:50;15.40;99.90
17954;DHT22;9102;53.548;9.926;2022-09-03T03:18:17;15.40;99.90
17954;DHT22;9102;53.548;9.926;2022-09-03T03:20:44;15.40;99.90
17954;DHT22;9102;53.548;9.926;2022-09-03T03:23:12;15.40;99.90
17954;DHT22;9102;53.548;9.926;2022-09-03T03:25:39;15.30;99.90
17954;DHT22;9102;53.548;9.926;2022-09-03T03:28:08;15.30;99.90
17954;DHT22;9102;53.548;9.926;2022-09-03T03:30:36;15.30;99.90
17954;DHT22;9102;53.548;9.926;2022-09-03T03:33:04;15.30;99.90
17954;DHT22;9102;53.548;9.926;2022-09-03T03:35:31;15.20;99.90
17954;DHT22;9102;53.548;9.926;2022-09-03T03:37:59;15.20;99.90
17954;DHT22;9102;53.548;9.926;2022-09-03T03:40:26;15.20;99.90
17954;DHT22;9102;53.548;9.926;2022-09-03T03:42:53;15.20;99.90
17954;DHT22;9102;53.548;9.926;2022-09-03T03:45:21;15.20;99.90
17954;DHT22;9102;53.548;9.926;2022-09-03T03:47:48;15.20;99.90
17954;DHT22;9102;53.548;9.926;2022-09-03T03:50:15;15.20;99.90
17954;DHT22;9102;53.548;9.926;2022-09-03T03:52:42;15.20;99.90
17954;DHT22;9102;53.548;9.926;2022-09-03T03:55:09;15.20;99.90
17954;DHT22;9102;53.548;9.926;2022-09-03T03:57:36;15.20;99.90
17954;DHT22;9102;53.548;9.926;2022-09-03T04:00:04;15.20;99.90
17954;DHT22;9102;53.548;9.926;2022-09-03T04:02:32;15.10;99.90
17954;DHT22;9102;53.548;9.926;2022-09-03T04:04:59;15.20;99.90
17954;DHT22;9102;53.548;9.926;2022-09-03T04:07:26;15.10;99.90
17954;DHT22;9102;53.548;9.926;2022-09-03T04:09:53;15.10;99.90
17954;DHT22;9102;53.548;9.926;2022-09-03T04:12:20;15.10;99.90
17954;DHT22;9102;53.548;9.926;2022-09-03T04:14:47;15.10;99.90
17954;DHT22;9102;53.548;9.926;2022-09-03T04:17:13;15.10;99.90
17954;DHT22;9102;53.548;9.926;2022-09-03T04:19:41;15.00;99.90
17954;DHT22;9102;53.548;9.926;2022-09-03T04:22:10;15.00;99.90
17954;DHT22;9102;53.548;9.926;2022-09-03T04:24:40;15.00;99.90
17954;DHT22;9102;53.548;9.926;2022-09-03T04:27:07;15.00;99.90
17954;DHT22;9102;53.548;9.926;2022-09-03T04:29:33;15.00;99.90
17954;DHT22;9102;53.548;9.926;2022-09-03T04:32:00;14.90;99.90
17954;DHT22;9102;53.548;9.926;2022-09-03T04:34:46;14.90;99.90
17954;DHT22;9102;53.548;9.926;2022-09-03T04:37:13;14.90;99.90
17954;DHT22;9102;53.548;9.926;2022-09-03T04:39:40;14.90;99.90
17954;DHT22;9102;53.548;9.926;2022-09-03T04:42:07;14.90;99.90
17954;DHT22;9102;53.548;9.926;2022-09-03T04:44:34;14.90;99.90
17954;DHT22;9102;53.548;9.926;2022-09-03T04:47:03;14.90;99.90
17954;DHT22;9102;53.548;9.926;2022-09-03T04:49:30;14.80;99.90
17954;DHT22;9102;53.548;9.926;2022-09-03T04:51:58;14.80;99.90
17954;DHT22;9102;53.548;9.926;2022-09-03T04:54:25;14.80;99.90
17954;DHT22;9102;53.548;9.926;2022-09-03T04:56:51;14.80;99.90
17954;DHT22;9102;53.548;9.926;2022-09-03T04:59:18;14.80;99.90
17954;DHT22;9102;53.548;9.926;2022-09-03T05:01:45;14.90;99.90
17954;DHT22;9102;53.548;9.926;2022-09-03T05:04:12;14.80;99.90
17954;DHT22;9102;53.548;9.926;2022-09-03T05:06:39;14.80;99.90
17954;DHT22;9102;53.548;9.926;2022-09-03T05:09:09;14.80;99.90
17954;DHT22;9102;53.548;9.926;2022-09-03T05:11:36;14.90;99.90
17954;DHT22;9102;53.548;9.926;2022-09-03T05:14:03;14.80;99.90
17954;DHT22;9102;53.548;9.926;2022-09-03T05:16:31;14.80;99.90
17954;DHT22;9102;53.548;9.926;2022-09-03T05:18:58;14.80;99.90
17954;DHT22;9102;53.548;9.926;2022-09-03T05:21:26;14.80;99.90
17954;DHT22;9102;53.548;9.926;2022-09-03T05:23:54;14.80;99.90
17954;DHT22;9102;53.548;9.926;2022-09-03T05:26:24;14.80;99.90
17954;DHT22;9102;53.548;9.926;2022-09-03T05:28:53;14.80;99.90
17954;DHT22;9102;53.548;9.926;2022-09-03T05:31:21;14.90;99.90
17954;DHT22;9102;53.548;9.926;2022-09-03T05:33:50;14.80;99.90
17954;DHT22;9102;53.548;9.926;2022-09-03T05:36:18;14.80;99.90
17954;DHT22;9102;53.548;9.926;2022-09-03T05:38:45;14.80;99.90
17954;DHT22;9102;53.548;9.926;2022-09-03T05:41:14;14.80;99.90
17954;DHT22;9102;53.548;9.926;2022-09-03T05:43:43;14.90;99.90
17954;DHT22;9102;53.548;9.926;2022-09-03T05:46:11;14.90;99.90
17954;DHT22;9102;53.548;9.926;2022-09-03T05:48:39;14.90;99.90
17954;DHT22;9102;53.548;9.926;2022-09-03T05:51:09;14.90;99.90
17954;DHT22;9102;53.548;9.926;2022-09-03T05:53:37;15.00;99.90
17954;DHT22;9102;53.548;9.926;2022-09-03T05:56:07;15.00;99.90
17954;DHT22;9102;53.548;9.926;2022-09-03T05:58:37;15.10;99.90
17954;DHT22;9102;53.548;9.926;2022-09-03T06:01:10;15.10;99.90
17954;DHT22;9102;53.548;9.926;2022-09-03T06:03:38;15.10;99.90
17954;DHT22;9102;53.548;9.926;2022-09-03T06:06:06;15.20;99.90
17954;DHT22;9102;53.548;9.926;2022-09-03T06:08:33;15.20;99.90
17954;DHT22;9102;53.548;9.926;2022-09-03T06:11:02;15.30;99.90
17954;DHT22;9102;53.548;9.926;2022-09-03T06:13:30;15.30;99.90
17954;DHT22;9102;53.548;9.926;2022-09-03T06:15:57;15.40;99.90
17954;DHT22;9102;53.548;9.926;2022-09-03T06:18:26;15.40;99.90
17954;DHT22;9102;53.548;9.926;2022-09-03T06:20:54;15.40;99.90
17954;DHT22;9102;53.548;9.926;2022-09-03T06:23:21;15.50;99.90
17954;DHT22;9102;53.548;9.926;2022-09-03T06:25:59;15.50;99.90
17954;DHT22;9102;53.548;9.926;2022-09-03T06:28:26;15.60;99.90
17954;DHT22;9102;53.548;9.926;2022-09-03T06:30:52;15.50;99.90
17954;DHT22;9102;53.548;9.926;2022-09-03T06:33:20;15.60;99.90
17954;DHT22;9102;53.548;9.926;2022-09-03T06:35:53;15.70;99.90
17954;DHT22;9102;53.548;9.926;2022-09-03T06:38:24;15.70;99.90
17954;DHT22;9102;53.548;9.926;2022-09-03T06:40:52;15.70;99.90
17954;DHT22;9102;53.548;9.926;2022-09-03T06:43:20;15.80;99.90
17954;DHT22;9102;53.548;9.926;2022-09-03T06:45:58;15.80;99.90
17954;DHT22;9102;53.548;9.926;2022-09-03T06:48:25;15.90;99.90
17954;DHT22;9102;53.548;9.926;2022-09-03T06:50:55;15.90;99.90
17954;DHT22;9102;53.548;9.926;2022-09-03T06:53:24;16.00;99.90
17954;DHT22;9102;53.548;9.926;2022-09-03T06:55:55;16.00;99.90
17954;DHT22;9102;53.548;9.926;2022-09-03T06:58:22;16.00;99.90
17954;DHT22;9102;53.548;9.926;2022-09-03T07:00:49;16.00;99.90
17954;DHT22;9102;53.548;9.926;2022-09-03T07:03:18;16.10;99.90
17954;DHT22;9102;53.548;9.926;2022-09-03T07:05:45;16.10;99.90
17954;DHT22;9102;53.548;9.926;2022-09-03T07:08:13;16.20;99.90
17954;DHT22;9102;53.548;9.926;2022-09-03T07:10:44;16.20;99.90
17954;DHT22;9102;53.548;9.926;2022-09-03T07:13:12;16.30;99.90
17954;DHT22;9102;53.548;9.926;2022-09-03T07:15:39;16.30;99.90
17954;DHT22;9102;53.548;9.926;2022-09-03T07:18:06;16.40;99.90
17954;DHT22;9102;53.548;9.926;2022-09-03T07:20:33;16.40;99.90
17954;DHT22;9102;53.548;9.926;2022-09-03T07:23:00;16.50;99.90
17954;DHT22;9102;53.548;9.926;2022-09-03T07:25:28;16.50;99.90
17954;DHT22;9102;53.548;9.926;2022-09-03T07:27:56;16.60;99.90
17954;DHT22;9102;53.548;9.926;2022-09-03T07:30:23;16.70;99.90
17954;DHT22;9102;53.548;9.926;2022-09-03T07:32:51;16.70;99.90
17954;DHT22;9102;53.548;9.926;2022-09-03T07:35:18;16.80;99.90
17954;DHT22;9102;53.548;9.926;2022-09-03T07:37:45;16.80;99.90
17954;DHT22;9102;53.548;9.926;2022-09-03T07:40:12;16.80;99.90
17954;DHT22;9102;53.548;9.926;2022-09-03T07:42:43;16.90;99.90
17954;DHT22;9102;53.548;9.926;2022-09-03T07:45:12;17.00;99.90
17954;DHT22;9102;53.548;9.926;2022-09-03T07:47:45;17.10;99.90
17954;DHT22;9102;53.548;9.926;2022-09-03T07:50:14;17.10;99.90
17954;DHT22;9102;53.548;9.926;2022-09-03T07:52:42;17.20;99.90
17954;DHT22;9102;53.548;9.926;2022-09-03T07:55:09;17.20;99.90
17954;DHT22;9102;53.548;9.926;2022-09-03T07:57:36;17.30;99.90
17954;DHT22;9102;53.548;9.926;2022-09-03T08:00:05;17.30;99.90
17954;DHT22;9102;53.548;9.926;2022-09-03T08:02:33;17.50;99.90
17954;DHT22;9102;53.548;9.926;2022-09-03T08:04:59;17.60;99.90
17954;DHT22;9102;53.548;9.926;2022-09-03T08:07:28;17.70;99.90
17954;DHT22;9102;53.548;9.926;2022-09-03T08:09:55;17.70;99.90
17954;DHT22;9102;53.548;9.926;2022-09-03T08:12:21;17.80;99.90
17954;DHT22;9102;53.548;9.926;2022-09-03T08:14:48;18.00;99.90
17954;DHT22;9102;53.548;9.926;2022-09-03T08:17:17;18.00;99.90
17954;DHT22;9102;53.548;9.926;2022-09-03T08:19:44;18.10;99.90
17954;DHT22;9102;53.548;9.926;2022-09-03T08:22:11;18.10;99.90
17954;DHT22;9102;53.548;9.926;2022-09-03T08:24:38;18.30;99.90
17954;DHT22;9102;53.548;9.926;2022-09-03T08:27:07;18.30;99.90
17954;DHT22;9102;53.548;9.926;2022-09-03T08:29:33;18.40;99.90
17954;DHT22;9102;53.548;9.926;2022-09-03T08:32:02;18.50;99.90
17954;DHT22;9102;53.548;9.926;2022-09-03T08:34:30;18.60;99.90
17954;DHT22;9102;53.548;9.926;2022-09-03T08:36:57;18.70;99.90
17954;DHT22;9102;53.548;9.926;2022-09-03T08:39:26;18.70;99.90
17954;DHT22;9102;53.548;9.926;2022-09-03T08:42:17;18.70;99.90
17954;DHT22;9102;53.548;9.926;2022-09-03T08:44:48;18.70;99.90
17954;DHT22;9102;53.548;9.926;2022-09-03T08:47:19;18.90;99.90
17954;DHT22;9102;53.548;9.926;2022-09-03T08:49:50;19.00;99.90
17954;DHT22;9102;53.548;9.926;2022-09-03T08:52:24;19.10;99.90
17954;DHT22;9102;53.548;9.926;2022-09-03T08:54:59;19.20;99.90
17954;DHT22;9102;53.548;9.926;2022-09-03T08:57:27;19.30;99.90
17954;DHT22;9102;53.548;9.926;2022-09-03T08:59:57;19.40;99.90
17954;DHT22;9102;53.548;9.926;2022-09-03T09:02:32;19.60;99.90
17954;DHT22;9102;53.548;9.926;2022-09-03T09:05:08;19.70;99.90
17954;DHT22;9102;53.548;9.926;2022-09-03T09:07:41;19.80;99.90
17954;DHT22;9102;53.548;9.926;2022-09-03T09:10:15;19.80;99.90
17954;DHT22;9102;53.548;9.926;2022-09-03T09:12:50;19.90;99.90
17954;DHT22;9102;53.548;9.926;2022-09-03T09:15:28;19.90;99.90
17954;DHT22;9102;53.548;9.926;2022-09-03T09:18:05;20.00;99.90
17954;DHT22;9102;53.548;9.926;2022-09-03T09:20:42;20.10;99.90
17954;DHT22;9102;53.548;9.926;2022-09-03T09:23:13;20.10;99.90
17954;DHT22;9102;53.548;9.926;2022-09-03T09:25:46;20.20;99.90
17954;DHT22;9102;53.548;9.926;2022-09-03T09:28:17;20.30;99.90
17954;DHT22;9102;53.548;9.926;2022-09-03T09:30:47;20.30;99.90
17954;DHT22;9102;53.548;9.926;2022-09-03T09:33:14;20.50;99.90
17954;DHT22;9102;53.548;9.926;2022-09-03T09:35:43;20.50;99.90
17954;DHT22;9102;53.548;9.926;2022-09-03T09:38:10;20.50;99.90
17954;DHT22;9102;53.548;9.926;2022-09-03T09:40:39;20.50;99.90
17954;DHT22;9102;53.548;9.926;2022-09-03T09:43:09;20.40;99.90
17954;DHT22;9102;53.548;9.926;2022-09-03T09:45:38;20.20;99.90
17954;DHT22;9102;53.548;9.926;2022-09-03T09:48:10;20.30;99.90
17954;DHT22;9102;53.548;9.926;2022-09-03T09:50:38;20.40;99.90
17954;DHT22;9102;53.548;9.926;2022-09-03T09:53:10;20.50;99.90
17954;DHT22;9102;53.548;9.926;2022-09-03T09:55:51;20.70;99.90
17954;DHT22;9102;53.548;9.926;2022-09-03T09:58:19;21.00;99.90
17954;DHT22;9102;53.548;9.926;2022-09-03T10:00:59;21.10;99.90
17954;DHT22;9102;53.548;9.926;2022-09-03T10:03:28;21.20;99.90
17954;DHT22;9102;53.548;9.926;2022-09-03T10:06:04;21.40;99.90
17954;DHT22;9102;53.548;9.926;2022-09-03T10:11:34;21.20;99.90
17954;DHT22;9102;53.548;9.926;2022-09-03T10:14:07;21.10;99.90
17954;DHT22;9102;53.548;9.926;2022-09-03T10:16:42;21.10;99.90
17954;DHT22;9102;53.548;9.926;2022-09-03T10:19:16;21.30;99.90
17954;DHT22;9102;53.548;9.926;2022-09-03T10:21:48;21.30;99.90
17954;DHT22;9102;53.548;9.926;2022-09-03T10:24:33;21.30;99.90
17954;DHT22;9102;53.548;9.926;2022-09-03T10:27:06;21.40;99.90
17954;DHT22;9102;53.548;9.926;2022-09-03T10:29:35;21.20;99.90
17954;DHT22;9102;53.548;9.926;2022-09-03T10:32:16;21.20;99.90
17954;DHT22;9102;53.548;9.926;2022-09-03T10:34:53;21.40;99.90
17954;DHT22;9102;53.548;9.926;2022-09-03T10:37:31;21.30;99.90
17954;DHT22;9102;53.548;9.926;2022-09-03T10:40:13;21.20;99.90
17954;DHT22;9102;53.548;9.926;2022-09-03T10:42:50;21.20;99.90
17954;DHT22;9102;53.548;9.926;2022-09-03T10:45:31;21.30;99.90
17954;DHT22;9102;53.548;9.926;2022-09-03T10:51:14;21.20;99.90
17954;DHT22;9102;53.548;9.926;2022-09-03T10:53:54;21.30;99.90
17954;DHT22;9102;53.548;9.926;2022-09-03T10:56:34;21.40;99.90
17954;DHT22;9102;53.548;9.926;2022-09-03T10:59:35;21.40;99.90
17954;DHT22;9102;53.548;9.926;2022-09-03T11:02:18;21.50;99.90
17954;DHT22;9102;53.548;9.926;2022-09-03T11:04:55;21.50;99.90
17954;DHT22;9102;53.548;9.926;2022-09-03T11:07:27;21.50;99.90
17954;DHT22;9102;53.548;9.926;2022-09-03T11:10:04;21.40;99.90
17954;DHT22;9102;53.548;9.926;2022-09-03T11:12:35;21.30;99.90
17954;DHT22;9102;53.548;9.926;2022-09-03T11:15:08;21.30;99.90
17954;DHT22;9102;53.548;9.926;2022-09-03T11:17:39;21.40;99.90
17954;DHT22;9102;53.548;9.926;2022-09-03T11:20:16;21.50;99.90
17954;DHT22;9102;53.548;9.926;2022-09-03T11:22:45;21.60;99.90
17954;DHT22;9102;53.548;9.926;2022-09-03T11:25:15;21.50;99.90
17954;DHT22;9102;53.548;9.926;2022-09-03T11:27:53;21.50;99.90
17954;DHT22;9102;53.548;9.926;2022-09-03T11:30:25;21.50;99.90
17954;DHT22;9102;53.548;9.926;2022-09-03T11:32:57;21.60;99.90
17954;DHT22;9102;53.548;9.926;2022-09-03T11:35:27;21.70;99.90
17954;DHT22;9102;53.548;9.926;2022-09-03T11:37:58;21.90;99.90
17954;DHT22;9102;53.548;9.926;2022-09-03T11:40:31;22.20;99.20
17954;DHT22;9102;53.548;9.926;2022-09-03T11:43:10;22.10;98.60
17954;DHT22;9102;53.548;9.926;2022-09-03T11:45:39;22.00;99.00
17954;DHT22;9102;53.548;9.926;2022-09-03T11:48:33;22.00;99.20
17954;DHT22;9102;53.548;9.926;2022-09-03T11:51:00;22.20;98.80
17954;DHT22;9102;53.548;9.926;2022-09-03T11:53:32;22.30;98.00
17954;DHT22;9102;53.548;9.926;2022-09-03T11:56:11;22.20;98.50
17954;DHT22;9102;53.548;9.926;2022-09-03T11:58:43;22.10;98.20
17954;DHT22;9102;53.548;9.926;2022-09-03T12:01:11;21.80;98.30
17954;DHT22;9102;53.548;9.926;2022-09-03T12:03:43;21.80;98.70
17954;DHT22;9102;53.548;9.926;2022-09-03T12:09:23;22.20;97.80
17954;DHT22;9102;53.548;9.926;2022-09-03T12:12:00;22.10;97.90
17954;DHT22;9102;53.548;9.926;2022-09-03T12:14:38;22.00;97.90
17954;DHT22;9102;53.548;9.926;2022-09-03T12:17:13;21.80;97.50
17954;DHT22;9102;53.548;9.926;2022-09-03T12:19:51;21.90;97.70
17954;DHT22;9102;53.548;9.926;2022-09-03T12:22:21;21.80;97.40
17954;DHT22;9102;53.548;9.926;2022-09-03T12:24:48;21.90;97.70
17954;DHT22;9102;53.548;9.926;2022-09-03T12:27:18;21.90;97.10
17954;DHT22;9102;53.548;9.926;2022-09-03T12:29:55;22.00;97.50
17954;DHT22;9102;53.548;9.926;2022-09-03T12:32:25;22.00;97.00
17954;DHT22;9102;53.548;9.926;2022-09-03T12:34:52;22.10;97.10
17954;DHT22;9102;53.548;9.926;2022-09-03T12:37:21;22.10;96.90
17954;DHT22;9102;53.548;9.926;2022-09-03T12:39:50;22.10;96.70
17954;DHT22;9102;53.548;9.926;2022-09-03T12:42:21;22.20;97.10
17954;DHT22;9102;53.548;9.926;2022-09-03T12:44:48;22.20;97.30
17954;DHT22;9102;53.548;9.926;2022-09-03T12:47:18;22.20;96.80
17954;DHT22;9102;53.548;9.926;2022-09-03T12:49:47;22.10;96.20
17954;DHT22;9102;53.548;9.926;2022-09-03T12:52:18;22.00;96.50
17954;DHT22;9102;53.548;9.926;2022-09-03T12:54:49;22.00;95.80
17954;DHT22;9102;53.548;9.926;2022-09-03T12:57:21;22.10;95.90
17954;DHT22;9102;53.548;9.926;2022-09-03T12:59:52;22.10;95.60
17954;DHT22;9102;53.548;9.926;2022-09-03T13:02:26;22.10;95.30
17954;DHT22;9102;53.548;9.926;2022-09-03T13:04:54;22.00;95.80
17954;DHT22;9102;53.548;9.926;2022-09-03T13:07:26;22.10;95.30
17954;DHT22;9102;53.548;9.926;2022-09-03T13:10:00;22.20;95.50
17954;DHT22;9102;53.548;9.926;2022-09-03T13:12:31;22.30;95.50
17954;DHT22;9102;53.548;9.926;2022-09-03T13:15:05;22.20;95.30
17954;DHT22;9102;53.548;9.926;2022-09-03T13:17:50;22.30;95.50
17954;DHT22;9102;53.548;9.926;2022-09-03T13:20:36;22.40;94.80
17954;DHT22;9102;53.548;9.926;2022-09-03T13:23:20;22.40;94.10
17954;DHT22;9102;53.548;9.926;2022-09-03T13:25:58;22.40;93.90
17954;DHT22;9102;53.548;9.926;2022-09-03T13:28:41;22.50;93.80
17954;DHT22;9102;53.548;9.926;2022-09-03T13:31:23;22.50;94.30
17954;DHT22;9102;53.548;9.926;2022-09-03T13:33:58;22.40;93.80
17954;DHT22;9102;53.548;9.926;2022-09-03T13:36:29;22.50;94.00
17954;DHT22;9102;53.548;9.926;2022-09-03T13:38:59;22.50;93.70
17954;DHT22;9102;53.548;9.926;2022-09-03T13:41:34;22.40;94.00
17954;DHT22;9102;53.548;9.926;2022-09-03T13:44:07;22.40;94.00
17954;DHT22;9102;53.548;9.926;2022-09-03T13:46:42;22.50;93.50
17954;DHT22;9102;53.548;9.926;2022-09-03T13:49:35;22.50;93.70
17954;DHT22;9102;53.548;9.926;2022-09-03T13:52:26;22.50;93.30
17954;DHT22;9102;53.548;9.926;2022-09-03T13:54:59;22.40;93.20
17954;DHT22;9102;53.548;9.926;2022-09-03T13:57:32;22.40;93.30
17954;DHT22;9102;53.548;9.926;2022-09-03T14:00:05;22.40;93.70
17954;DHT22;9102;53.548;9.926;2022-09-03T14:02:44;22.40;93.00
17954;DHT22;9102;53.548;9.926;2022-09-03T14:05:16;22.40;92.80
17954;DHT22;9102;53.548;9.926;2022-09-03T14:08:01;22.40;92.60
17954;DHT22;9102;53.548;9.926;2022-09-03T14:10:43;22.40;92.80
17954;DHT22;9102;53.548;9.926;2022-09-03T14:13:17;22.50;92.70
17954;DHT22;9102;53.548;9.926;2022-09-03T14:15:50;22.60;92.70
17954;DHT22;9102;53.548;9.926;2022-09-03T14:18:32;22.50;92.20
17954;DHT22;9102;53.548;9.926;2022-09-03T14:21:05;22.40;91.90
17954;DHT22;9102;53.548;9.926;2022-09-03T14:23:41;22.40;92.00
17954;DHT22;9102;53.548;9.926;2022-09-03T14:26:16;22.50;91.70
17954;DHT22;9102;53.548;9.926;2022-09-03T14:28:46;22.50;91.90
17954;DHT22;9102;53.548;9.926;2022-09-03T14:31:20;22.50;92.40
17954;DHT22;9102;53.548;9.926;2022-09-03T14:33:57;22.50;92.00
17954;DHT22;9102;53.548;9.926;2022-09-03T14:36:30;22.50;92.00
17954;DHT22;9102;53.548;9.926;2022-09-03T14:39:09;22.40;92.00
17954;DHT22;9102;53.548;9.926;2022-09-03T14:41:55;22.50;92.20
17954;DHT22;9102;53.548;9.926;2022-09-03T14:44:41;22.40;91.50
17954;DHT22;9102;53.548;9.926;2022-09-03T14:47:20;22.40;91.30
17954;DHT22;9102;53.548;9.926;2022-09-03T14:49:59;22.30;91.10
17954;DHT22;9102;53.548;9.926;2022-09-03T14:55:55;22.30;91.10
17954;DHT22;9102;53.548;9.926;2022-09-03T14:58:34;22.20;90.80
17954;DHT22;9102;53.548;9.926;2022-09-03T15:01:10;22.20;91.20
17954;DHT22;9102;53.548;9.926;2022-09-03T15:03:54;22.20;91.50
17954;DHT22;9102;53.548;9.926;2022-09-03T15:06:36;22.20;91.50
17954;DHT22;9102;53.548;9.926;2022-09-03T15:09:19;22.20;90.80
17954;DHT22;9102;53.548;9.926;2022-09-03T15:11:51;22.20;91.20
17954;DHT22;9102;53.548;9.926;2022-09-03T15:14:25;22.10;91.30
17954;DHT22;9102;53.548;9.926;2022-09-03T15:16:58;22.10;91.30
17954;DHT22;9102;53.548;9.926;2022-09-03T15:19:54;22.10;91.40
17954;DHT22;9102;53.548;9.926;2022-09-03T15:22:40;22.20;91.20
17954;DHT22;9102;53.548;9.926;2022-09-03T15:25:18;22.10;91.20
17954;DHT22;9102;53.548;9.926;2022-09-03T15:28:10;22.10;91.20
17954;DHT22;9102;53.548;9.926;2022-09-03T15:30:43;22.10;91.20
17954;DHT22;9102;53.548;9.926;2022-09-03T15:33:19;22.10;91.00
17954;DHT22;9102;53.548;9.926;2022-09-03T15:36:00;22.00;90.80
17954;DHT22;9102;53.548;9.926;2022-09-03T15:38:39;22.00;91.10
17954;DHT22;9102;53.548;9.926;2022-09-03T15:41:20;21.90;91.50
17954;DHT22;9102;53.548;9.926;2022-09-03T15:43:57;22.00;91.90
17954;DHT22;9102;53.548;9.926;2022-09-03T15:46:48;21.90;91.70
17954;DHT22;9102;53.548;9.926;2022-09-03T15:49:25;21.90;91.70
17954;DHT22;9102;53.548;9.926;2022-09-03T15:52:07;21.80;91.20
17954;DHT22;9102;53.548;9.926;2022-09-03T15:54:41;21.80;91.40
17954;DHT22;9102;53.548;9.926;2022-09-03T15:57:16;21.80;91.40
17954;DHT22;9102;53.548;9.926;2022-09-03T15:59:50;21.80;91.40
17954;DHT22;9102;53.548;9.926;2022-09-03T16:02:20;21.80;91.60
17954;DHT22;9102;53.548;9.926;2022-09-03T16:04:59;21.70;91.70
17954;DHT22;9102;53.548;9.926;2022-09-03T16:07:40;21.70;91.50
17954;DHT22;9102;53.548;9.926;2022-09-03T16:10:15;21.60;91.30
17954;DHT22;9102;53.548;9.926;2022-09-03T16:12:51;21.60;92.00
17954;DHT22;9102;53.548;9.926;2022-09-03T16:15:26;21.60;91.60
17954;DHT22;9102;53.548;9.926;2022-09-03T16:17:58;21.60;91.50
17954;DHT22;9102;53.548;9.926;2022-09-03T16:20:33;21.50;91.60
17954;DHT22;9102;53.548;9.926;2022-09-03T16:23:06;21.50;91.50
17954;DHT22;9102;53.548;9.926;2022-09-03T16:25:46;21.50;91.70
17954;DHT22;9102;53.548;9.926;2022-09-03T16:28:18;21.50;91.70
17954;DHT22;9102;53.548;9.926;2022-09-03T16:30:56;21.40;91.70
17954;DHT22;9102;53.548;9.926;2022-09-03T16:33:32;21.40;91.60